^^
Grace C. Lehan Memorial Weather Station Historical Data
Daily Summary for January 15, 2021 Units:  Both    English   Metric
Daily Weekly Monthly Yearly
  High: Low: Average:
Temperature: 46.3 °F /  7.9 °C 28.8 °F /  -1.8 °C 38.4 °F /  3.6 °C
Dew Point: 41.8 °F /  5.4 °C 20 °F /  -6.7 °C 30 °F /  -1.1 °C
Humidity: 94% 51% 73%
Wind Speed: 2mph /  3.2km/h - 0.1mph /  0.2km/h
Wind Gust: 5mph /  8km/h - -
Wind- - WNW
Pressure: 30.67 in /  1038.5 hPa 30.24 in /  1023.9 hPa -
Precipitation: 0.12 in /  3.05 mm    
 
 
Tabular Data for January 15, 2021
Time Temperature Dew Point Pressure Wind Wind Speed Wind Gust Humidity Rainfall Rate (Hourly) solar
00:04 36.2 °F /  2.3 °C 21.4 °F /  -5.9 °C 30.64in /  1037.5hPa Calm     54.5% 0.00in /  0mm 0 W/m2
00:09 36.1 °F /  2.3 °C 21.6 °F /  -5.8 °C 30.64in /  1037.5hPa Calm     55.2% 0.00in /  0mm 0 W/m2
00:14 35.9 °F /  2.2 °C 21.7 °F /  -5.7 °C 30.64in /  1037.5hPa Calm     55.8% 0.00in /  0mm 0 W/m2
00:19 35.8 °F /  2.1 °C 21.5 °F /  -5.8 °C 30.64in /  1037.5hPa Calm     55.6% 0.00in /  0mm 0 W/m2
00:24 35.6 °F /  2 °C 21.5 °F /  -5.8 °C 30.64in /  1037.5hPa Calm     56% 0.00in /  0mm 0 W/m2
00:29 35.5 °F /  1.9 °C 21.4 °F /  -5.9 °C 30.63in /  1037.1hPa Calm   2mph /  3.2km/h 56.1% 0.00in /  0mm 0 W/m2
00:34 35.4 °F /  1.9 °C 21.7 °F /  -5.7 °C 30.64in /  1037.5hPa Calm   2mph /  3.2km/h 57% 0.00in /  0mm 0 W/m2
00:39 35.3 °F /  1.8 °C 21.2 °F /  -6 °C 30.64in /  1037.5hPa Calm     56% 0.00in /  0mm 0 W/m2
00:44 35.2 °F /  1.8 °C 20.9 °F /  -6.2 °C 30.64in /  1037.5hPa Calm     55.5% 0.00in /  0mm 0 W/m2
00:49 35.1 °F /  1.7 °C 20.6 °F /  -6.3 °C 30.64in /  1037.5hPa Calm     55.1% 0.00in /  0mm 0 W/m2
00:54 35 °F /  1.7 °C 20.4 °F /  -6.4 °C 30.64in /  1037.5hPa Calm     54.9% 0.00in /  0mm 0 W/m2
00:59 35 °F /  1.7 °C 20 °F /  -6.7 °C 30.63in /  1037.1hPa Calm     54% 0.00in /  0mm 0 W/m2
01:04 34.9 °F /  1.6 °C 20.3 °F /  -6.5 °C 30.63in /  1037.1hPa Calm     54.8% 0.00in /  0mm 0 W/m2
01:09 34.9 °F /  1.6 °C 20.9 °F /  -6.2 °C 30.63in /  1037.1hPa Calm     56.1% 0.00in /  0mm 0 W/m2
01:14 34.8 °F /  1.6 °C 20.9 °F /  -6.2 °C 30.64in /  1037.5hPa Calm     56.2% 0.00in /  0mm 0 W/m2
01:19 34.8 °F /  1.6 °C 21.1 °F /  -6.1 °C 30.64in /  1037.5hPa Calm     57% 0.00in /  0mm 0 W/m2
01:24 34.8 °F /  1.6 °C 21.3 °F /  -5.9 °C 30.64in /  1037.5hPa Calm     57.5% 0.00in /  0mm 0 W/m2
01:29 34.8 °F /  1.6 °C 21.8 °F /  -5.7 °C 30.64in /  1037.5hPa Calm     58.7% 0.00in /  0mm 0 W/m2
01:34 34.7 °F /  1.5 °C 22.1 °F /  -5.5 °C 30.64in /  1037.5hPa Calm     59.5% 0.00in /  0mm 0 W/m2
01:39 34.6 °F /  1.4 °C 22.2 °F /  -5.4 °C 30.64in /  1037.5hPa Calm     60% 0.00in /  0mm 0 W/m2
01:44 34.5 °F /  1.4 °C 22.2 °F /  -5.4 °C 30.64in /  1037.5hPa Calm     60.2% 0.00in /  0mm 0 W/m2
01:49 34.4 °F /  1.3 °C 22.3 °F /  -5.4 °C 30.64in /  1037.5hPa Calm     61% 0.00in /  0mm 0 W/m2
01:54 34.3 °F /  1.3 °C 22.2 °F /  -5.4 °C 30.64in /  1037.5hPa Calm     61% 0.00in /  0mm 0 W/m2
01:59 34.2 °F /  1.2 °C 22.1 °F /  -5.5 °C 30.64in /  1037.5hPa Calm     61% 0.00in /  0mm 0 W/m2
02:04 34.1 °F /  1.2 °C 22.5 °F /  -5.3 °C 30.64in /  1037.5hPa Calm     62.1% 0.00in /  0mm 0 W/m2
02:09 34 °F /  1.1 °C 22.9 °F /  -5.1 °C 30.65in /  1037.8hPa Calm     63.5% 0.00in /  0mm 0 W/m2
02:14 33.8 °F /  1 °C 23.1 °F /  -4.9 °C 30.64in /  1037.5hPa NNW 0.1mph /  0.2km/h 2mph /  3.2km/h 64.4% 0.00in /  0mm 0 W/m2
02:19 33.7 °F /  0.9 °C 23.2 °F /  -4.9 °C 30.64in /  1037.5hPa Calm   2mph /  3.2km/h 65% 0.00in /  0mm 0 W/m2
02:24 33.4 °F /  0.8 °C 23.1 °F /  -4.9 °C 30.65in /  1037.8hPa Calm   2mph /  3.2km/h 65.2% 0.00in /  0mm 0 W/m2
02:29 33.3 °F /  0.7 °C 23.3 °F /  -4.8 °C 30.65in /  1037.8hPa Calm   2mph /  3.2km/h 66.4% 0.00in /  0mm 0 W/m2
02:34 33.2 °F /  0.7 °C 23.1 °F /  -4.9 °C 30.65in /  1037.8hPa Calm   2mph /  3.2km/h 66.3% 0.00in /  0mm 0 W/m2
02:39 33 °F /  0.6 °C 23.3 °F /  -4.8 °C 30.65in /  1037.8hPa Calm     67% 0.00in /  0mm 0 W/m2
02:44 32.9 °F /  0.5 °C 23.1 °F /  -4.9 °C 30.65in /  1037.8hPa Calm     67% 0.00in /  0mm 0 W/m2
02:49 32.7 °F /  0.4 °C 23.1 °F /  -4.9 °C 30.65in /  1037.8hPa Calm     67.3% 0.00in /  0mm 0 W/m2
02:54 32.6 °F /  0.3 °C 23.2 °F /  -4.9 °C 30.65in /  1037.8hPa Calm     68% 0.00in /  0mm 0 W/m2
02:59 32.5 °F /  0.3 °C 23.3 °F /  -4.8 °C 30.65in /  1037.8hPa Calm     68.3% 0.00in /  0mm 0 W/m2
03:04 32.4 °F /  0.2 °C 23 °F /  -5 °C 30.65in /  1037.8hPa Calm     68% 0.00in /  0mm 0 W/m2
03:09 32.3 °F /  0.2 °C 22.9 °F /  -5.1 °C 30.65in /  1037.8hPa Calm     68% 0.00in /  0mm 0 W/m2
03:14 32.2 °F /  0.1 °C 23.2 °F /  -4.9 °C 30.65in /  1037.8hPa Calm     68.8% 0.00in /  0mm 0 W/m2
03:19 32.2 °F /  0.1 °C 23.2 °F /  -4.9 °C 30.65in /  1037.8hPa Calm     69% 0.00in /  0mm 0 W/m2
03:24 32.1 °F /  0.1 °C 23.1 °F /  -4.9 °C 30.65in /  1037.8hPa Calm     69% 0.00in /  0mm 0 W/m2
03:29 32 °F /  0 °C 23 °F /  -5 °C 30.66in /  1038.1hPa Calm     69% 0.00in /  0mm 0 W/m2
03:34 31.9 °F /  -0.1 °C 22.9 °F /  -5.1 °C 30.66in /  1038.1hPa Calm     69% 0.00in /  0mm 0 W/m2
03:39 31.8 °F /  -0.1 °C 22.6 °F /  -5.2 °C 30.66in /  1038.1hPa Calm     68.4% 0.00in /  0mm 0 W/m2
03:44 31.8 °F /  -0.1 °C 22.4 °F /  -5.3 °C 30.66in /  1038.1hPa Calm     68% 0.00in /  0mm 0 W/m2
03:49 31.7 °F /  -0.2 °C 22.8 °F /  -5.1 °C 30.66in /  1038.1hPa Calm     69.2% 0.00in /  0mm 0 W/m2
03:54 31.7 °F /  -0.2 °C 23.1 °F /  -4.9 °C 30.66in /  1038.1hPa Calm     70% 0.00in /  0mm 0 W/m2
03:59 31.6 °F /  -0.2 °C 23 °F /  -5 °C 30.66in /  1038.1hPa Calm     70% 0.00in /  0mm 0 W/m2
04:00 31.5 °F /  -0.3 °C 22.9 °F /  -5.1 °C 30.65in /  1037.8hPa Calm     70% 0.00in /  0mm 0 W/m2
04:09 31.4 °F /  -0.3 °C 22.7 °F /  -5.2 °C 30.66in /  1038.1hPa Calm     70% 0.00in /  0mm 0 W/m2
04:14 31.3 °F /  -0.4 °C 22.7 °F /  -5.2 °C 30.66in /  1038.1hPa Calm     70% 0.00in /  0mm 0 W/m2
04:18 31.3 °F /  -0.4 °C 22.7 °F /  -5.2 °C 30.66in /  1038.1hPa Calm     70% 0.00in /  0mm 0 W/m2
04:24 31.3 °F /  -0.4 °C 22.6 °F /  -5.2 °C 30.66in /  1038.1hPa Calm     70% 0.00in /  0mm 0 W/m2
04:29 31.2 °F /  -0.4 °C 22.6 °F /  -5.2 °C 30.65in /  1037.8hPa Calm     70% 0.00in /  0mm 0 W/m2
04:34 31.1 °F /  -0.5 °C 22.5 °F /  -5.3 °C 30.66in /  1038.1hPa Calm     70% 0.00in /  0mm 0 W/m2
04:39 31 °F /  -0.6 °C 22.4 °F /  -5.3 °C 30.65in /  1037.8hPa Calm     70% 0.00in /  0mm 0 W/m2
04:44 31 °F /  -0.6 °C 22.7 °F /  -5.2 °C 30.66in /  1038.1hPa Calm     70.9% 0.00in /  0mm 0 W/m2
04:49 30.9 °F /  -0.6 °C 22.7 °F /  -5.2 °C 30.66in /  1038.1hPa Calm     71% 0.00in /  0mm 0 W/m2
04:54 30.8 °F /  -0.7 °C 22.7 °F /  -5.2 °C 30.65in /  1037.8hPa Calm     71.5% 0.00in /  0mm 0 W/m2
04:59 30.7 °F /  -0.7 °C 22.8 °F /  -5.1 °C 30.66in /  1038.1hPa Calm     72% 0.00in /  0mm 0 W/m2
05:04 30.7 °F /  -0.7 °C 22.9 °F /  -5.1 °C 30.65in /  1037.8hPa Calm     72.5% 0.00in /  0mm 0 W/m2
05:09 30.6 °F /  -0.8 °C 23 °F /  -5 °C 30.65in /  1037.8hPa Calm     73% 0.00in /  0mm 0 W/m2
05:14 30.6 °F /  -0.8 °C 22.9 °F /  -5.1 °C 30.65in /  1037.8hPa Calm     73% 0.00in /  0mm 0 W/m2
05:19 30.5 °F /  -0.8 °C 22.9 °F /  -5.1 °C 30.65in /  1037.8hPa Calm     73% 0.00in /  0mm 0 W/m2
05:24 30.4 °F /  -0.9 °C 22.8 °F /  -5.1 °C 30.65in /  1037.8hPa Calm     73% 0.00in /  0mm 0 W/m2
05:29 30.3 °F /  -0.9 °C 22.7 °F /  -5.2 °C 30.65in /  1037.8hPa Calm     73% 0.00in /  0mm 0 W/m2
05:34 30.2 °F /  -1 °C 22.9 °F /  -5.1 °C 30.66in /  1038.1hPa Calm     74% 0.00in /  0mm 0 W/m2
05:39 30.1 °F /  -1.1 °C 22.8 °F /  -5.1 °C 30.66in /  1038.1hPa Calm     74% 0.00in /  0mm 0 W/m2
05:44 30 °F /  -1.1 °C 22.7 °F /  -5.2 °C 30.66in /  1038.1hPa Calm     74% 0.00in /  0mm 0 W/m2
05:49 29.8 °F /  -1.2 °C 22.8 °F /  -5.1 °C 30.66in /  1038.1hPa Calm     74.7% 0.00in /  0mm 0 W/m2
05:54 29.7 °F /  -1.3 °C 22.7 °F /  -5.2 °C 30.65in /  1037.8hPa Calm     75% 0.00in /  0mm 0 W/m2
05:59 29.6 °F /  -1.3 °C 22.6 °F /  -5.2 °C 30.65in /  1037.8hPa Calm     75% 0.00in /  0mm 0 W/m2
06:04 29.4 °F /  -1.4 °C 22.8 °F /  -5.1 °C 30.65in /  1037.8hPa Calm     76% 0.00in /  0mm 0 W/m2
06:09 29.3 °F /  -1.5 °C 22.8 °F /  -5.1 °C 30.65in /  1037.8hPa NNW 2mph /  3.2km/h 4mph /  6.4km/h 76.2% 0.00in /  0mm 0 W/m2
06:14 29.3 °F /  -1.5 °C 23 °F /  -5 °C 30.65in /  1037.8hPa NNW 0.7mph /  1.1km/h 4mph /  6.4km/h 77% 0.00in /  0mm 0 W/m2
06:19 29.2 °F /  -1.6 °C 23 °F /  -5 °C 30.65in /  1037.8hPa NNW 0.8mph /  1.3km/h 4mph /  6.4km/h 77.2% 0.00in /  0mm 0 W/m2
06:24 29.2 °F /  -1.6 °C 23.2 °F /  -4.9 °C 30.65in /  1037.8hPa Calm   4mph /  6.4km/h 78% 0.00in /  0mm 0 W/m2
06:29 29.2 °F /  -1.6 °C 23.2 °F /  -4.9 °C 30.64in /  1037.5hPa NNW 0.7mph /  1.1km/h 4mph /  6.4km/h 78% 0.00in /  0mm 0 W/m2
06:34 29.1 °F /  -1.6 °C 23.2 °F /  -4.9 °C 30.66in /  1038.1hPa NNW 1.3mph /  2.1km/h 4mph /  6.4km/h 78.5% 0.00in /  0mm 0 W/m2
06:39 29 °F /  -1.7 °C 23.3 °F /  -4.8 °C 30.66in /  1038.1hPa NNW 0.6mph /  1km/h 4mph /  6.4km/h 79% 0.00in /  0mm 0 W/m2
06:44 28.9 °F /  -1.7 °C 23.1 °F /  -4.9 °C 30.66in /  1038.1hPa NNW 0.4mph /  0.6km/h 4mph /  6.4km/h 78.5% 0.00in /  0mm 0 W/m2
06:49 28.9 °F /  -1.7 °C 22.9 °F /  -5.1 °C 30.66in /  1038.1hPa Calm   4mph /  6.4km/h 78% 0.00in /  0mm 0 W/m2
06:54 28.8 °F /  -1.8 °C 22.8 °F /  -5.1 °C 30.66in /  1038.1hPa NNW 0.7mph /  1.1km/h 4mph /  6.4km/h 77.8% 0.00in /  0mm 0 W/m2
06:59 28.8 °F /  -1.8 °C 22.8 °F /  -5.1 °C 30.66in /  1038.1hPa NNW 0.2mph /  0.3km/h 4mph /  6.4km/h 78% 0.00in /  0mm 0 W/m2
07:04 28.9 °F /  -1.7 °C 22.6 °F /  -5.2 °C 30.66in /  1038.1hPa NNW 0.1mph /  0.2km/h 4mph /  6.4km/h 77.1% 0.00in /  0mm 5 W/m2
07:09 29 °F /  -1.7 °C 22.7 °F /  -5.2 °C 30.66in /  1038.1hPa Calm   1mph /  1.6km/h 77% 0.00in /  0mm 7 W/m2
07:14 29.1 °F /  -1.6 °C 22.8 °F /  -5.1 °C 30.66in /  1038.1hPa Calm   1mph /  1.6km/h 76.8% 0.00in /  0mm 9 W/m2
07:19 29.4 °F /  -1.4 °C 22.7 °F /  -5.2 °C 30.66in /  1038.1hPa Calm   1mph /  1.6km/h 76% 0.00in /  0mm 11 W/m2
07:24 29.6 °F /  -1.3 °C 23 °F /  -5 °C 30.66in /  1038.1hPa Calm   1mph /  1.6km/h 76% 0.00in /  0mm 14 W/m2
07:29 29.7 °F /  -1.3 °C 22.9 °F /  -5.1 °C 30.66in /  1038.1hPa Calm   1mph /  1.6km/h 75.4% 0.00in /  0mm 18 W/m2
07:34 29.8 °F /  -1.2 °C 22.9 °F /  -5.1 °C 30.66in /  1038.1hPa Calm   1mph /  1.6km/h 75% 0.00in /  0mm 19 W/m2
07:39 29.9 °F /  -1.2 °C 23 °F /  -5 °C 30.66in /  1038.1hPa Calm     75% 0.00in /  0mm 23 W/m2
07:44 30.1 °F /  -1.1 °C 23.1 °F /  -4.9 °C 30.66in /  1038.1hPa Calm     75% 0.00in /  0mm 35 W/m2
07:49 30.3 °F /  -0.9 °C 23.3 °F /  -4.8 °C 30.67in /  1038.5hPa Calm     75% 0.00in /  0mm 44 W/m2
07:54 30.6 °F /  -0.8 °C 23.5 °F /  -4.7 °C 30.66in /  1038.1hPa Calm     74.9% 0.00in /  0mm 42 W/m2
07:59 30.8 °F /  -0.7 °C 23.5 °F /  -4.7 °C 30.66in /  1038.1hPa Calm     74% 0.00in /  0mm 53 W/m2
08:00 31 °F /  -0.6 °C 23.7 °F /  -4.6 °C 30.66in /  1038.1hPa Calm     74% 0.00in /  0mm 53 W/m2
08:09 31.2 °F /  -0.4 °C 23.6 °F /  -4.7 °C 30.67in /  1038.5hPa Calm     73.1% 0.00in /  0mm 62 W/m2
08:14 31.2 °F /  -0.4 °C 23.9 °F /  -4.5 °C 30.66in /  1038.1hPa Calm     74% 0.00in /  0mm 86 W/m2
08:19 31.2 °F /  -0.4 °C 23.9 °F /  -4.5 °C 30.66in /  1038.1hPa Calm     74% 0.00in /  0mm 69 W/m2
08:24 31.4 °F /  -0.3 °C 24.3 °F /  -4.3 °C 30.66in /  1038.1hPa Calm     74.6% 0.00in /  0mm 107 W/m2
08:29 31.7 °F /  -0.2 °C 24.6 °F /  -4.1 °C 30.66in /  1038.1hPa Calm     74.8% 0.00in /  0mm 135 W/m2
08:34 32.1 °F /  0.1 °C 25.1 °F /  -3.8 °C 30.65in /  1037.8hPa Calm     74.8% 0.00in /  0mm 118 W/m2
08:39 32.7 °F /  0.4 °C 25.3 °F /  -3.7 °C 30.65in /  1037.8hPa Calm     74% 0.00in /  0mm 121 W/m2
08:44 33.1 °F /  0.6 °C 25.4 °F /  -3.7 °C 30.65in /  1037.8hPa Calm     73% 0.00in /  0mm 132 W/m2
08:49 33.5 °F /  0.8 °C 25.3 °F /  -3.7 °C 30.65in /  1037.8hPa Calm     71.5% 0.00in /  0mm 195 W/m2
08:54 33.9 °F /  1.1 °C 25.2 °F /  -3.8 °C 30.65in /  1037.8hPa Calm     70.2% 0.00in /  0mm 162 W/m2
08:59 34.2 °F /  1.2 °C 25.2 °F /  -3.8 °C 30.66in /  1038.1hPa Calm     69.2% 0.00in /  0mm 165 W/m2
09:04 34.6 °F /  1.4 °C 25.3 °F /  -3.7 °C 30.66in /  1038.1hPa Calm     68.5% 0.00in /  0mm 104 W/m2
09:09 34.8 °F /  1.6 °C 25.3 °F /  -3.7 °C 30.66in /  1038.1hPa Calm     68% 0.00in /  0mm 142 W/m2
09:14 35 °F /  1.7 °C 25.6 °F /  -3.6 °C 30.66in /  1038.1hPa Calm     68% 0.00in /  0mm 156 W/m2
09:19 35.3 °F /  1.8 °C 25.7 °F /  -3.5 °C 30.66in /  1038.1hPa Calm     67.7% 0.00in /  0mm 149 W/m2
09:24 35.6 °F /  2 °C 26.3 °F /  -3.2 °C 30.66in /  1038.1hPa Calm     68.7% 0.00in /  0mm 130 W/m2
09:29 35.7 °F /  2.1 °C 25.8 °F /  -3.4 °C 30.66in /  1038.1hPa Calm     67% 0.00in /  0mm 120 W/m2
09:34 35.7 °F /  2.1 °C 25.7 °F /  -3.5 °C 30.65in /  1037.8hPa NNW 0.2mph /  0.3km/h 2mph /  3.2km/h 66.6% 0.00in /  0mm 113 W/m2
09:39 35.7 °F /  2.1 °C 26 °F /  -3.3 °C 30.65in /  1037.8hPa Calm   2mph /  3.2km/h 67.5% 0.00in /  0mm 113 W/m2
09:44 35.7 °F /  2.1 °C 26.2 °F /  -3.2 °C 30.65in /  1037.8hPa Calm   2mph /  3.2km/h 68% 0.00in /  0mm 120 W/m2
09:49 35.7 °F /  2.1 °C 26.3 °F /  -3.2 °C 30.65in /  1037.8hPa Calm   2mph /  3.2km/h 68.2% 0.00in /  0mm 125 W/m2
09:54 35.8 °F /  2.1 °C 26.3 °F /  -3.2 °C 30.65in /  1037.8hPa Calm   2mph /  3.2km/h 68% 0.00in /  0mm 141 W/m2
09:59 35.9 °F /  2.2 °C 26.8 °F /  -2.9 °C 30.65in /  1037.8hPa Calm   2mph /  3.2km/h 69% 0.00in /  0mm 135 W/m2
10:04 36.2 °F /  2.3 °C 27.3 °F /  -2.6 °C 30.65in /  1037.8hPa Calm   2mph /  3.2km/h 70% 0.00in /  0mm 165 W/m2
10:09 36.4 °F /  2.4 °C 27 °F /  -2.8 °C 30.65in /  1037.8hPa Calm     68.4% 0.00in /  0mm 232 W/m2
10:14 36.7 °F /  2.6 °C 27.4 °F /  -2.6 °C 30.64in /  1037.5hPa Calm     68.8% 0.00in /  0mm 232 W/m2
10:19 37 °F /  2.8 °C 27.2 °F /  -2.7 °C 30.64in /  1037.5hPa Calm     67.2% 0.00in /  0mm 214 W/m2
10:24 37.3 °F /  2.9 °C 27.1 °F /  -2.7 °C 30.64in /  1037.5hPa Calm     66.1% 0.00in /  0mm 255 W/m2
10:29 37.8 °F /  3.2 °C 27.8 °F /  -2.3 °C 30.64in /  1037.5hPa Calm     67% 0.00in /  0mm 285 W/m2
10:34 38.2 °F /  3.4 °C 27.4 °F /  -2.6 °C 30.63in /  1037.1hPa Calm     64.8% 0.00in /  0mm 276 W/m2
10:39 38.8 °F /  3.8 °C 27.5 °F /  -2.5 °C 30.63in /  1037.1hPa Calm     63.5% 0.00in /  0mm 411 W/m2
10:44 39.5 °F /  4.2 °C 27.7 °F /  -2.4 °C 30.63in /  1037.1hPa Calm   1mph /  1.6km/h 62.3% 0.00in /  0mm 408 W/m2
10:49 40.2 °F /  4.6 °C 26.9 °F /  -2.8 °C 30.64in /  1037.5hPa Calm   1mph /  1.6km/h 58.8% 0.00in /  0mm 207 W/m2
10:54 40.7 °F /  4.8 °C 25.8 °F /  -3.4 °C 30.62in /  1036.8hPa Calm   1mph /  1.6km/h 55.1% 0.00in /  0mm 107 W/m2
10:59 40.9 °F /  4.9 °C 25.9 °F /  -3.4 °C 30.62in /  1036.8hPa Calm   1mph /  1.6km/h 54.8% 0.00in /  0mm 111 W/m2
11:04 40.9 °F /  4.9 °C 25.1 °F /  -3.8 °C 30.61in /  1036.5hPa Calm   1mph /  1.6km/h 53.2% 0.00in /  0mm 214 W/m2
11:09 40.8 °F /  4.9 °C 25.6 °F /  -3.6 °C 30.61in /  1036.5hPa Calm     54.4% 0.00in /  0mm 172 W/m2
11:14 40.7 °F /  4.8 °C 24.6 °F /  -4.1 °C 30.61in /  1036.5hPa Calm     52.4% 0.00in /  0mm 107 W/m2
11:19 40.5 °F /  4.7 °C 24.3 °F /  -4.3 °C 30.61in /  1036.5hPa Calm     52% 0.00in /  0mm 121 W/m2
11:24 40.4 °F /  4.7 °C 23.8 °F /  -4.6 °C 30.61in /  1036.5hPa Calm     51.1% 0.00in /  0mm 130 W/m2
11:29 40.2 °F /  4.6 °C 23.8 °F /  -4.6 °C 30.61in /  1036.5hPa Calm     51.4% 0.00in /  0mm 197 W/m2
11:34 40.3 °F /  4.6 °C 23.8 °F /  -4.6 °C 30.60in /  1036.1hPa NNW 0.1mph /  0.2km/h 2mph /  3.2km/h 51.3% 0.00in /  0mm 204 W/m2
11:39 40.4 °F /  4.7 °C 23.7 °F /  -4.6 °C 30.60in /  1036.1hPa Calm   2mph /  3.2km/h 51% 0.00in /  0mm 288 W/m2
11:44 40.4 °F /  4.7 °C 24.5 °F /  -4.2 °C 30.60in /  1036.1hPa Calm   2mph /  3.2km/h 52.5% 0.00in /  0mm 199 W/m2
11:49 40.7 °F /  4.8 °C 25.1 °F /  -3.8 °C 30.60in /  1036.1hPa NNW 0.3mph /  0.5km/h 2mph /  3.2km/h 53.5% 0.00in /  0mm 199 W/m2
11:54 40.9 °F /  4.9 °C 25.2 °F /  -3.8 °C 30.60in /  1036.1hPa NNW 0.1mph /  0.2km/h 2mph /  3.2km/h 53.3% 0.00in /  0mm 165 W/m2
11:59 41.1 °F /  5.1 °C 25.8 °F /  -3.4 °C 30.60in /  1036.1hPa NNW 0.1mph /  0.2km/h 2mph /  3.2km/h 54.1% 0.00in /  0mm 146 W/m2
12:09 41.4 °F /  5.2 °C 26 °F /  -3.3 °C 30.59in /  1035.8hPa Calm     54% 0.00in /  0mm 197 W/m2
12:14 41.4 °F /  5.2 °C 25.9 °F /  -3.4 °C 30.58in /  1035.4hPa Calm     53.6% 0.00in /  0mm 234 W/m2
12:19 41.5 °F /  5.3 °C 25.9 °F /  -3.4 °C 30.58in /  1035.4hPa Calm     53.5% 0.00in /  0mm 246 W/m2
12:24 41.6 °F /  5.3 °C 26.2 °F /  -3.2 °C 30.58in /  1035.4hPa Calm     54% 0.00in /  0mm 183 W/m2
12:29 41.6 °F /  5.3 °C 26.3 °F /  -3.2 °C 30.58in /  1035.4hPa Calm     54.3% 0.00in /  0mm 185 W/m2
12:34 41.6 °F /  5.3 °C 26.5 °F /  -3.1 °C 30.57in /  1035.1hPa Calm     54.5% 0.00in /  0mm 195 W/m2
12:39 41.8 °F /  5.4 °C 26.8 °F /  -2.9 °C 30.57in /  1035.1hPa Calm     55% 0.00in /  0mm 199 W/m2
12:44 42 °F /  5.6 °C 27.1 °F /  -2.7 °C 30.57in /  1035.1hPa NNW 0.1mph /  0.2km/h 1mph /  1.6km/h 55.2% 0.00in /  0mm 278 W/m2
12:49 42.3 °F /  5.7 °C 27.6 °F /  -2.4 °C 30.56in /  1034.8hPa Calm   1mph /  1.6km/h 55.8% 0.00in /  0mm 265 W/m2
12:54 42.6 °F /  5.9 °C 27.8 °F /  -2.3 °C 30.56in /  1034.8hPa Calm   1mph /  1.6km/h 55.4% 0.00in /  0mm 144 W/m2
12:59 43 °F /  6.1 °C 28 °F /  -2.2 °C 30.56in /  1034.8hPa NNW 0.2mph /  0.3km/h 3mph /  4.8km/h 55.2% 0.00in /  0mm 118 W/m2
13:04 43.3 °F /  6.3 °C 28.7 °F /  -1.8 °C 30.56in /  1034.8hPa NNW 0.2mph /  0.3km/h 3mph /  4.8km/h 56% 0.00in /  0mm 345 W/m2
13:09 43.7 °F /  6.5 °C 29.1 °F /  -1.6 °C 30.55in /  1034.4hPa NNW 0.2mph /  0.3km/h 3mph /  4.8km/h 56% 0.00in /  0mm 248 W/m2
13:14 44 °F /  6.7 °C 29.4 °F /  -1.4 °C 30.55in /  1034.4hPa NNW 0.1mph /  0.2km/h 3mph /  4.8km/h 56% 0.00in /  0mm 165 W/m2
13:19 44.2 °F /  6.8 °C 29.6 °F /  -1.3 °C 30.55in /  1034.4hPa NNW 0.3mph /  0.5km/h 3mph /  4.8km/h 56.2% 0.00in /  0mm 149 W/m2
13:24 44.2 °F /  6.8 °C 30.1 °F /  -1.1 °C 30.55in /  1034.4hPa Calm   3mph /  4.8km/h 57.3% 0.00in /  0mm 199 W/m2
13:29 44.3 °F /  6.8 °C 30.1 °F /  -1.1 °C 30.54in /  1034.1hPa NNW 0.3mph /  0.5km/h 3mph /  4.8km/h 57.2% 0.00in /  0mm 199 W/m2
13:34 44.3 °F /  6.8 °C 30.5 °F /  -0.8 °C 30.53in /  1033.7hPa NNW 0.2mph /  0.3km/h 3mph /  4.8km/h 58% 0.00in /  0mm 188 W/m2
13:39 44.3 °F /  6.8 °C 30.7 °F /  -0.7 °C 30.52in /  1033.4hPa Calm   2mph /  3.2km/h 58.6% 0.00in /  0mm 158 W/m2
13:44 44.4 °F /  6.9 °C 31 °F /  -0.6 °C 30.52in /  1033.4hPa Calm   2mph /  3.2km/h 59% 0.00in /  0mm 114 W/m2
13:49 44.5 °F /  6.9 °C 31.8 °F /  -0.1 °C 30.52in /  1033.4hPa Calm   2mph /  3.2km/h 60.7% 0.00in /  0mm 116 W/m2
13:54 44.6 °F /  7 °C 32.4 °F /  0.2 °C 30.51in /  1033.1hPa NNW 0.1mph /  0.2km/h 2mph /  3.2km/h 62% 0.00in /  0mm 107 W/m2
13:59 44.7 °F /  7.1 °C 32.8 °F /  0.4 °C 30.51in /  1033.1hPa NNW 0.3mph /  0.5km/h 2mph /  3.2km/h 62.9% 0.00in /  0mm 116 W/m2
14:04 44.7 °F /  7.1 °C 33.6 °F /  0.9 °C 30.51in /  1033.1hPa NW 0.1mph /  0.2km/h 2mph /  3.2km/h 64.8% 0.00in /  0mm 114 W/m2
14:09 44.8 °F /  7.1 °C 34.2 °F /  1.2 °C 30.50in /  1032.7hPa NW 0.6mph /  1km/h 3mph /  4.8km/h 66% 0.00in /  0mm 132 W/m2
14:14 45 °F /  7.2 °C 34.4 °F /  1.3 °C 30.50in /  1032.7hPa NW 0.7mph /  1.1km/h 4mph /  6.4km/h 66.1% 0.00in /  0mm 128 W/m2
14:19 45.2 °F /  7.3 °C 34.9 °F /  1.6 °C 30.50in /  1032.7hPa SSW 0.5mph /  0.8km/h 5mph /  8km/h 67% 0.00in /  0mm 127 W/m2
14:24 45.3 °F /  7.4 °C 35 °F /  1.7 °C 30.50in /  1032.7hPa Calm   5mph /  8km/h 67% 0.00in /  0mm 102 W/m2
14:29 45.4 °F /  7.4 °C 35.1 °F /  1.7 °C 30.51in /  1033.1hPa SE 0.5mph /  0.8km/h 5mph /  8km/h 67% 0.00in /  0mm 93 W/m2
14:34 45.5 °F /  7.5 °C 35.2 °F /  1.8 °C 30.51in /  1033.1hPa SSE 1mph /  1.6km/h 5mph /  8km/h 67% 0.00in /  0mm 88 W/m2
14:39 45.6 °F /  7.6 °C 35.3 °F /  1.8 °C 30.51in /  1033.1hPa SSE 0.8mph /  1.3km/h 5mph /  8km/h 67% 0.00in /  0mm 84 W/m2
14:44 45.6 °F /  7.6 °C 35.3 °F /  1.8 °C 30.51in /  1033.1hPa SSE 0.1mph /  0.2km/h 5mph /  8km/h 67% 0.00in /  0mm 79 W/m2
14:49 45.7 °F /  7.6 °C 35.8 °F /  2.1 °C 30.52in /  1033.4hPa SSE 0.1mph /  0.2km/h 5mph /  8km/h 68% 0.00in /  0mm 74 W/m2
14:54 45.8 °F /  7.7 °C 35.8 °F /  2.1 °C 30.51in /  1033.1hPa SSE 0.2mph /  0.3km/h 5mph /  8km/h 68% 0.00in /  0mm 63 W/m2
14:59 45.9 °F /  7.7 °C 35.9 °F /  2.2 °C 30.51in /  1033.1hPa Calm   5mph /  8km/h 68% 0.00in /  0mm 56 W/m2
15:04 45.9 °F /  7.7 °C 36 °F /  2.2 °C 30.51in /  1033.1hPa Calm   5mph /  8km/h 68% 0.00in /  0mm 56 W/m2
15:09 46 °F /  7.8 °C 36.1 °F /  2.3 °C 30.50in /  1032.7hPa Calm   1mph /  1.6km/h 68% 0.00in /  0mm 49 W/m2
15:14 46 °F /  7.8 °C 36.1 °F /  2.3 °C 30.50in /  1032.7hPa Calm   1mph /  1.6km/h 68% 0.00in /  0mm 39 W/m2
15:19 46.1 °F /  7.8 °C 36.1 °F /  2.3 °C 30.50in /  1032.7hPa Calm   1mph /  1.6km/h 68% 0.00in /  0mm 30 W/m2
15:24 46.1 °F /  7.8 °C 36.1 °F /  2.3 °C 30.50in /  1032.7hPa Calm   1mph /  1.6km/h 68% 0.00in /  0mm 19 W/m2
15:29 46.1 °F /  7.8 °C 36.1 °F /  2.3 °C 30.50in /  1032.7hPa Calm   1mph /  1.6km/h 68% 0.00in /  0mm 14 W/m2
15:34 46.1 °F /  7.8 °C 36.4 °F /  2.4 °C 30.50in /  1032.7hPa Calm   1mph /  1.6km/h 68.8% 0.00in /  0mm 14 W/m2
15:39 46.1 °F /  7.8 °C 36.5 °F /  2.5 °C 30.50in /  1032.7hPa Calm     69% 0.00in /  0mm 12 W/m2
15:44 46.2 °F /  7.9 °C 36.6 °F /  2.6 °C 30.50in /  1032.7hPa Calm   1mph /  1.6km/h 69% 0.00in /  0mm 11 W/m2
15:49 46.2 °F /  7.9 °C 36.6 °F /  2.6 °C 30.49in /  1032.4hPa SSE 0.3mph /  0.5km/h 1mph /  1.6km/h 69% 0.00in /  0mm 11 W/m2
15:54 46.3 °F /  7.9 °C 36.7 °F /  2.6 °C 30.49in /  1032.4hPa Calm   1mph /  1.6km/h 69% 0.00in /  0mm 7 W/m2
15:59 46.3 °F /  7.9 °C 36.7 °F /  2.6 °C 30.49in /  1032.4hPa Calm   1mph /  1.6km/h 69% 0.00in /  0mm 7 W/m2
16:09 46.3 °F /  7.9 °C 36.7 °F /  2.6 °C 30.50in /  1032.7hPa Calm     69% 0.00in /  0mm 0 W/m2
16:14 46.2 °F /  7.9 °C 36.8 °F /  2.7 °C 30.49in /  1032.4hPa Calm     69.6% 0.00in /  0mm 0 W/m2
16:19 46.1 °F /  7.8 °C 36.9 °F /  2.7 °C 30.49in /  1032.4hPa Calm     70% 0.00in /  0mm 0 W/m2
16:24 46 °F /  7.8 °C 36.8 °F /  2.7 °C 30.49in /  1032.4hPa Calm     70% 0.00in /  0mm 0 W/m2
16:29 46 °F /  7.8 °C 36.7 °F /  2.6 °C 30.48in /  1032.1hPa Calm     70% 0.00in /  0mm 0 W/m2
16:34 45.9 °F /  7.7 °C 36.7 °F /  2.6 °C 30.48in /  1032.1hPa Calm     70.1% 0.00in /  0mm 0 W/m2
16:39 45.8 °F /  7.7 °C 36.9 °F /  2.7 °C 30.47in /  1031.7hPa Calm     71% 0.00in /  0mm 0 W/m2
16:44 45.7 °F /  7.6 °C 37 °F /  2.8 °C 30.48in /  1032.1hPa Calm     71.5% 0.00in /  0mm 0 W/m2
16:49 45.6 °F /  7.6 °C 37.4 °F /  3 °C 30.48in /  1032.1hPa Calm     72.9% 0.00in /  0mm 0 W/m2
16:54 45.5 °F /  7.5 °C 37.4 °F /  3 °C 30.47in /  1031.7hPa Calm     73% 0.00in /  0mm 0 W/m2
16:59 45.4 °F /  7.4 °C 37.5 °F /  3.1 °C 30.47in /  1031.7hPa Calm     73.8% 0.00in /  0mm 0 W/m2
17:04 45.3 °F /  7.4 °C 37.5 °F /  3.1 °C 30.47in /  1031.7hPa Calm     74% 0.00in /  0mm 0 W/m2
17:09 45.2 °F /  7.3 °C 37.6 °F /  3.1 °C 30.47in /  1031.7hPa Calm     74.6% 0.00in /  0mm 0 W/m2
17:14 45.1 °F /  7.3 °C 38.1 °F /  3.4 °C 30.47in /  1031.7hPa Calm     76.2% 0.00in /  0mm 0 W/m2
17:19 45 °F /  7.2 °C 38.4 °F /  3.6 °C 30.46in /  1031.4hPa Calm     77.3% 0.00in /  0mm 0 W/m2
17:24 44.8 °F /  7.1 °C 38.6 °F /  3.7 °C 30.46in /  1031.4hPa Calm     78.5% 0.01in /  0.25mm 0 W/m2
17:29 44.6 °F /  7 °C 38.6 °F /  3.7 °C 30.46in /  1031.4hPa Calm     79.3% 0.01in /  0.25mm 0 W/m2
17:34 44.4 °F /  6.9 °C 38.8 °F /  3.8 °C 30.47in /  1031.7hPa Calm     80.6% 0.02in /  0.51mm 0 W/m2
17:39 44.2 °F /  6.8 °C 38.8 °F /  3.8 °C 30.46in /  1031.4hPa Calm     81.3% 0.02in /  0.51mm 0 W/m2
17:44 43.9 °F /  6.6 °C 38.8 °F /  3.8 °C 30.46in /  1031.4hPa Calm     82% 0.03in /  0.76mm 0 W/m2
17:49 43.7 °F /  6.5 °C 38.8 °F /  3.8 °C 30.47in /  1031.7hPa SSE 0.1mph /  0.2km/h 2mph /  3.2km/h 82.9% 0.04in /  1.02mm 0 W/m2
17:54 43.5 °F /  6.4 °C 39 °F /  3.9 °C 30.46in /  1031.4hPa Calm   2mph /  3.2km/h 83.9% 0.05in /  1.27mm 0 W/m2
17:59 43.2 °F /  6.2 °C 39 °F /  3.9 °C 30.46in /  1031.4hPa Calm   2mph /  3.2km/h 84.9% 0.05in /  1.27mm 0 W/m2
18:04 43 °F /  6.1 °C 39 °F /  3.9 °C 30.46in /  1031.4hPa Calm   2mph /  3.2km/h 85.6% 0.06in /  1.52mm 0 W/m2
18:09 42.8 °F /  6 °C 39.1 °F /  3.9 °C 30.45in /  1031hPa Calm     86.7% 0.06in /  1.52mm 0 W/m2
18:14 42.7 °F /  5.9 °C 39.1 °F /  3.9 °C 30.45in /  1031hPa Calm     87% 0.07in /  1.78mm 0 W/m2
18:19 42.6 °F /  5.9 °C 39.2 °F /  4 °C 30.45in /  1031hPa Calm     87.6% 0.08in /  2.03mm 0 W/m2
18:24 42.5 °F /  5.8 °C 39.2 °F /  4 °C 30.44in /  1030.7hPa Calm     88% 0.08in /  2.03mm 0 W/m2
18:29 42.4 °F /  5.8 °C 39.1 °F /  3.9 °C 30.44in /  1030.7hPa Calm     88.1% 0.09in /  2.29mm 0 W/m2
18:34 42.3 °F /  5.7 °C 39.3 °F /  4.1 °C 30.43in /  1030.4hPa Calm     89% 0.09in /  2.29mm 0 W/m2
18:39 42.1 °F /  5.6 °C 39.1 °F /  3.9 °C 30.43in /  1030.4hPa Calm     89% 0.08in /  2.03mm 0 W/m2
18:44 42.1 °F /  5.6 °C 39.2 °F /  4 °C 30.43in /  1030.4hPa Calm     89.5% 0.08in /  2.03mm 0 W/m2
18:49 42.1 °F /  5.6 °C 39.3 °F /  4.1 °C 30.43in /  1030.4hPa Calm     90% 0.08in /  2.03mm 0 W/m2
18:54 42 °F /  5.6 °C 39.3 °F /  4.1 °C 30.43in /  1030.4hPa Calm     90% 0.08in /  2.03mm 0 W/m2
18:59 42 °F /  5.6 °C 39.3 °F /  4.1 °C 30.42in /  1030hPa Calm     90% 0.09in /  2.29mm 0 W/m2
19:04 42.1 °F /  5.6 °C 39.5 °F /  4.2 °C 30.42in /  1030hPa Calm     90.5% 0.09in /  2.29mm 0 W/m2
19:09 42.1 °F /  5.6 °C 39.7 °F /  4.3 °C 30.42in /  1030hPa Calm     91% 0.05in /  1.27mm 0 W/m2
19:14 42.1 °F /  5.6 °C 39.7 °F /  4.3 °C 30.41in /  1029.7hPa Calm     91% 0.05in /  1.27mm 0 W/m2
19:19 42 °F /  5.6 °C 39.6 °F /  4.2 °C 30.41in /  1029.7hPa Calm     91% 0.05in /  1.27mm 0 W/m2
19:24 42 °F /  5.6 °C 39.6 °F /  4.2 °C 30.40in /  1029.3hPa Calm     91% 0.05in /  1.27mm 0 W/m2
19:29 42.1 °F /  5.6 °C 39.7 °F /  4.3 °C 30.40in /  1029.3hPa Calm     91% 0.05in /  1.27mm 0 W/m2
19:34 42.1 °F /  5.6 °C 39.7 °F /  4.3 °C 30.40in /  1029.3hPa Calm     91.2% 0.05in /  1.27mm 0 W/m2
19:39 42 °F /  5.6 °C 39.9 °F /  4.4 °C 30.39in /  1029hPa Calm     92% 0.02in /  0.51mm 0 W/m2
19:44 42 °F /  5.6 °C 39.9 °F /  4.4 °C 30.39in /  1029hPa Calm     92% 0.02in /  0.51mm 0 W/m2
19:49 42 °F /  5.6 °C 39.8 °F /  4.3 °C 30.38in /  1028.7hPa Calm     92% 0.02in /  0.51mm 0 W/m2
19:54 42 °F /  5.6 °C 39.8 °F /  4.3 °C 30.38in /  1028.7hPa Calm     92% 0.02in /  0.51mm 0 W/m2
19:59 41.9 °F /  5.5 °C 39.8 °F /  4.3 °C 30.37in /  1028.3hPa Calm     92% 0.02in /  0.51mm 0 W/m2
20:00 42 °F /  5.6 °C 39.8 °F /  4.3 °C 30.37in /  1028.3hPa Calm     92% 0.02in /  0.51mm 0 W/m2
20:09 42.3 °F /  5.7 °C 40.4 °F /  4.7 °C 30.37in /  1028.3hPa Calm     93% 0.01in /  0.25mm 0 W/m2
20:14 42.4 °F /  5.8 °C 40.5 °F /  4.7 °C 30.37in /  1028.3hPa Calm     93% 0.01in /  0.25mm 0 W/m2
20:19 42.5 °F /  5.8 °C 40.6 °F /  4.8 °C 30.36in /  1028hPa Calm     93% 0.01in /  0.25mm 0 W/m2
20:24 42.6 °F /  5.9 °C 40.7 °F /  4.8 °C 30.36in /  1028hPa Calm     93% 0.01in /  0.25mm 0 W/m2
20:29 42.7 °F /  5.9 °C 40.8 °F /  4.9 °C 30.35in /  1027.7hPa Calm     93% 0.01in /  0.25mm 0 W/m2
20:34 42.7 °F /  5.9 °C 40.8 °F /  4.9 °C 30.35in /  1027.7hPa Calm     93% 0.01in /  0.25mm 0 W/m2
20:39 42.8 °F /  6 °C 40.9 °F /  4.9 °C 30.35in /  1027.7hPa Calm     93% 0.01in /  0.25mm 0 W/m2
20:44 42.8 °F /  6 °C 40.9 °F /  4.9 °C 30.35in /  1027.7hPa Calm     93% 0.01in /  0.25mm 0 W/m2
20:49 42.8 °F /  6 °C 40.9 °F /  4.9 °C 30.34in /  1027.3hPa Calm     93% 0.01in /  0.25mm 0 W/m2
20:54 42.8 °F /  6 °C 41 °F /  5 °C 30.34in /  1027.3hPa Calm     93% 0.01in /  0.25mm 0 W/m2
20:59 43 °F /  6.1 °C 41.2 °F /  5.1 °C 30.33in /  1027hPa Calm     93.4% 0.01in /  0.25mm 0 W/m2
21:04 43.1 °F /  6.2 °C 41.4 °F /  5.2 °C 30.33in /  1027hPa Calm     93.6% 0.01in /  0.25mm 0 W/m2
21:09 43.2 °F /  6.2 °C 41.6 °F /  5.3 °C 30.33in /  1027hPa Calm     94% 0.00in /  0mm 0 W/m2
21:14 43.3 °F /  6.3 °C 41.7 °F /  5.4 °C 30.32in /  1026.6hPa Calm     94% 0.00in /  0mm 0 W/m2
21:19 43.4 °F /  6.3 °C 41.8 °F /  5.4 °C 30.32in /  1026.6hPa Calm     94% 0.00in /  0mm 0 W/m2
21:24 43.4 °F /  6.3 °C 41.8 °F /  5.4 °C 30.31in /  1026.3hPa Calm     94% 0.00in /  0mm 0 W/m2
21:29 43.4 °F /  6.3 °C 41.8 °F /  5.4 °C 30.31in /  1026.3hPa Calm     94% 0.00in /  0mm 0 W/m2
21:34 43.4 °F /  6.3 °C 41.8 °F /  5.4 °C 30.31in /  1026.3hPa Calm     94% 0.00in /  0mm 0 W/m2
21:39 43.4 °F /  6.3 °C 41.8 °F /  5.4 °C 30.31in /  1026.3hPa Calm     94% 0.00in /  0mm 0 W/m2
21:44 43.4 °F /  6.3 °C 41.8 °F /  5.4 °C 30.30in /  1026hPa Calm   2mph /  3.2km/h 94% 0.00in /  0mm 0 W/m2
21:49 43.4 °F /  6.3 °C 41.8 °F /  5.4 °C 30.30in /  1026hPa Calm   2mph /  3.2km/h 94% 0.00in /  0mm 0 W/m2
21:54 43.4 °F /  6.3 °C 41.8 °F /  5.4 °C 30.30in /  1026hPa Calm   2mph /  3.2km/h 94% 0.00in /  0mm 0 W/m2
21:59 43.4 °F /  6.3 °C 41.8 °F /  5.4 °C 30.30in /  1026hPa Calm   2mph /  3.2km/h 94% 0.00in /  0mm 0 W/m2
22:04 43.4 °F /  6.3 °C 41.8 °F /  5.4 °C 30.29in /  1025.6hPa Calm   2mph /  3.2km/h 94% 0.00in /  0mm 0 W/m2
22:09 43.3 °F /  6.3 °C 41.7 °F /  5.4 °C 30.28in /  1025.3hPa Calm     94% 0.00in /  0mm 0 W/m2
22:14 43.2 °F /  6.2 °C 41.6 °F /  5.3 °C 30.28in /  1025.3hPa Calm     94% 0.00in /  0mm 0 W/m2
22:19 43.1 °F /  6.2 °C 41.5 °F /  5.3 °C 30.27in /  1024.9hPa Calm     94% 0.00in /  0mm 0 W/m2
22:24 43.1 °F /  6.2 °C 41.5 °F /  5.3 °C 30.27in /  1024.9hPa Calm     94% 0.00in /  0mm 0 W/m2
22:29 43.2 °F /  6.2 °C 41.5 °F /  5.3 °C 30.26in /  1024.6hPa Calm     94% 0.00in /  0mm 0 W/m2
22:34 43.2 °F /  6.2 °C 41.6 °F /  5.3 °C 30.26in /  1024.6hPa Calm     94% 0.00in /  0mm 0 W/m2
22:39 43.2 °F /  6.2 °C 41.6 °F /  5.3 °C 30.26in /  1024.6hPa Calm     94% 0.00in /  0mm 0 W/m2
22:44 43.3 °F /  6.3 °C 41.7 °F /  5.4 °C 30.26in /  1024.6hPa Calm     94% 0.00in /  0mm 0 W/m2
22:49 43.3 °F /  6.3 °C 41.7 °F /  5.4 °C 30.25in /  1024.3hPa Calm     94% 0.01in /  0.25mm 0 W/m2
22:54 43.3 °F /  6.3 °C 41.7 °F /  5.4 °C 30.25in /  1024.3hPa Calm     94% 0.01in /  0.25mm 0 W/m2
22:59 43.3 °F /  6.3 °C 41.7 °F /  5.4 °C 30.25in /  1024.3hPa Calm     94% 0.01in /  0.25mm 0 W/m2
23:08 43.4 °F /  6.3 °C 41.8 °F /  5.4 °C 30.24in /  1023.9hPa Calm     94% 0.01in /  0.25mm 0 W/m2
Hartford County Weather
Compliments of Weather Underground - 4 mb